Time;durP1;ratioP1;P1;durP2;ratioP2;P2;SDS_P1;SDS_P2;PMS_P1;PMS_P2;Temp;Humidity;BMP_temperature;BMP_pressure;BME280_temperature;BME280_humidity;BME280_pressure;Samples;Min_cycle;Max_cycle;Signal;HPM_P1;HPM_P2
2023/10/24 00:01:12;;;;;;;5.78;3.60;;;;;;;11.68;100.00;97935.63;4993111;28;20022;-62
2023/10/24 00:03:37;;;;;;;5.95;3.55;;;;;;;11.67;100.00;97925.88;5000628;28;20028;-62
2023/10/24 00:06:03;;;;;;;10.90;3.25;;;;;;;11.65;100.00;97925.28;5028820;23;20237;-78
2023/10/24 00:08:29;;;;;;;4.43;2.85;;;;;;;11.62;100.00;97923.84;5021145;28;20100;-78
2023/10/24 00:11:04;;;;;;;9.68;5.55;;;;;;;11.59;100.00;97927.84;5014268;28;20018;-78
2023/10/24 00:13:29;;;;;;;9.50;4.90;;;;;;;11.61;100.00;97942.00;5012477;28;20030;-77
2023/10/24 00:15:55;;;;;;;5.40;3.80;;;;;;;11.60;100.00;97931.38;5007648;28;20032;-77
2023/10/24 00:18:20;;;;;;;8.05;3.53;;;;;;;11.65;100.00;97917.13;5002797;28;20021;-77
2023/10/24 00:20:45;;;;;;;10.45;3.33;;;;;;;11.50;100.00;97902.16;5003704;28;20068;-77
2023/10/24 00:23:11;;;;;;;7.40;3.53;;;;;;;11.48;100.00;97903.44;4999175;28;20037;-76
2023/10/24 00:25:37;;;;;;;8.13;4.10;;;;;;;11.39;100.00;97901.03;5002181;28;20341;-76
2023/10/24 00:28:02;;;;;;;7.80;3.40;;;;;;;11.31;100.00;97895.13;5002045;28;20049;-77
2023/10/24 00:30:27;;;;;;;6.18;3.25;;;;;;;11.27;100.00;97891.25;5002073;28;20018;-77
2023/10/24 00:32:53;;;;;;;5.07;3.10;;;;;;;11.36;100.00;97912.34;5002048;28;20331;-77
2023/10/24 00:35:18;;;;;;;8.18;3.15;;;;;;;11.22;100.00;97901.94;5002652;28;20036;-77
2023/10/24 00:37:44;;;;;;;6.45;3.17;;;;;;;11.37;100.00;97907.75;4990402;28;20031;-76
2023/10/24 00:40:10;;;;;;;24.02;8.18;;;;;;;11.52;100.00;97929.81;4982480;28;20033;-76
2023/10/24 00:42:35;;;;;;;29.27;10.13;;;;;;;11.66;100.00;97935.03;4987947;28;20198;-77
2023/10/24 00:45:00;;;;;;;24.05;10.93;;;;;;;11.68;100.00;97935.63;5001867;28;20038;-77
2023/10/24 00:47:26;;;;;;;16.45;7.45;;;;;;;11.57;100.00;97938.06;5000519;28;20231;-77
2023/10/24 00:49:52;;;;;;;4.82;3.35;;;;;;;11.54;100.00;97937.72;5002400;28;20319;-76
2023/10/24 00:52:17;;;;;;;10.35;4.90;;;;;;;11.59;100.00;97952.22;4995106;28;20037;-76
2023/10/24 00:54:43;;;;;;;11.20;4.10;;;;;;;11.48;100.00;97939.47;4982203;28;20031;-76
2023/10/24 00:57:11;;;;;;;7.18;3.50;;;;;;;11.35;100.00;97920.72;4982868;28;20100;-77
2023/10/24 00:59:39;;;;;;;6.72;3.20;;;;;;;11.43;100.00;97920.38;4982190;28;20086;-77
2023/10/24 01:02:04;;;;;;;5.45;3.42;;;;;;;11.53;100.00;97942.31;4992508;28;20033;-76
2023/10/24 01:04:30;;;;;;;4.63;3.28;;;;;;;11.52;100.00;97931.72;5001512;28;20343;-76
2023/10/24 01:06:55;;;;;;;5.97;3.50;;;;;;;11.26;100.00;97911.25;4995402;28;20284;-77
2023/10/24 01:09:20;;;;;;;4.78;2.97;;;;;;;11.46;100.00;97938.06;4988401;28;20177;-77
2023/10/24 01:11:49;;;;;;;5.63;3.03;;;;;;;11.28;100.00;97928.91;5001517;28;20033;-77
2023/10/24 01:14:14;;;;;;;5.63;3.42;;;;;;;11.04;100.00;97903.63;5001410;28;20022;-76
2023/10/24 01:16:44;;;;;;;5.07;3.28;;;;;;;11.28;100.00;97944.34;4988436;28;20030;-77
2023/10/24 01:19:10;;;;;;;5.70;3.92;;;;;;;11.35;100.00;97939.66;4990040;28;20066;-76
2023/10/24 01:21:36;;;;;;;5.75;3.45;;;;;;;11.18;100.00;97920.50;5001368;28;20030;-77
2023/10/24 01:24:01;;;;;;;8.88;3.40;;;;;;;11.12;100.00;97911.44;4998961;28;20061;-76
2023/10/24 01:26:27;;;;;;;9.77;3.00;;;;;;;11.23;100.00;97922.53;4990096;28;20045;-76
2023/10/24 01:28:53;;;;;;;7.43;3.40;;;;;;;11.27;100.00;97907.50;4981856;28;20374;-77
2023/10/24 01:31:18;;;;;;;4.43;3.33;;;;;;;11.24;100.00;97899.81;4989294;28;20018;-76
2023/10/24 01:33:43;;;;;;;6.28;3.35;;;;;;;11.20;100.00;97894.03;4989139;28;20030;-76
2023/10/24 01:36:09;;;;;;;6.18;3.40;;;;;;;11.22;100.00;97893.81;4981656;28;20054;-76
2023/10/24 01:38:34;;;;;;;5.32;3.00;;;;;;;11.08;100.00;97877.75;4992588;28;20030;-76
2023/10/24 01:40:59;;;;;;;4.75;3.40;;;;;;;11.23;100.00;97904.41;5001163;28;20018;-77
2023/10/24 01:43:25;;;;;;;4.90;3.35;;;;;;;11.23;100.00;97895.47;5002367;28;20034;-76
2023/10/24 01:45:50;;;;;;;9.57;3.22;;;;;;;11.17;100.00;97900.72;4998299;28;20030;-77
2023/10/24 01:48:15;;;;;;;5.95;3.50;;;;;;;11.17;100.00;97892.63;4997079;28;20386;-77
2023/10/24 01:50:40;;;;;;;5.20;3.33;;;;;;;11.21;100.00;97905.69;5004809;28;20030;-76
2023/10/24 01:53:06;;;;;;;4.20;3.15;;;;;;;11.16;100.00;97907.22;4997568;28;20431;-77
2023/10/24 01:55:31;;;;;;;8.05;3.45;;;;;;;11.05;100.00;97889.03;4986629;28;20037;-76
2023/10/24 01:57:56;;;;;;;7.25;3.40;;;;;;;11.07;100.00;97903.16;4990779;28;20058;-76
2023/10/24 02:00:22;;;;;;;8.10;3.65;;;;;;;11.02;100.00;97880.53;5004533;28;20323;-76
2023/10/24 02:02:47;;;;;;;5.63;3.70;;;;;;;11.02;100.00;97892.19;4988444;28;20259;-77
2023/10/24 02:05:12;;;;;;;4.72;3.50;;;;;;;11.06;100.00;97882.56;4986889;28;20026;-77
2023/10/24 02:07:38;;;;;;;9.32;3.28;;;;;;;11.08;100.00;97885.03;4996704;28;20026;-77
2023/10/24 02:10:04;;;;;;;7.65;3.90;;;;;;;11.10;100.00;97894.56;5006616;28;20033;-77
2023/10/24 02:12:30;;;;;;;7.10;3.53;;;;;;;11.09;100.00;97884.00;4986449;28;20062;-78
2023/10/24 02:14:55;;;;;;;5.75;3.65;;;;;;;11.08;100.00;97887.75;4984822;28;20023;-76
2023/10/24 02:17:20;;;;;;;11.00;3.45;;;;;;;11.13;100.00;97883.31;5003289;28;20212;-77
2023/10/24 02:19:45;;;;;;;6.00;3.80;;;;;;;11.11;100.00;97904.38;5005534;28;20022;-77
2023/10/24 02:22:11;;;;;;;8.25;4.35;;;;;;;11.02;100.00;97896.78;5005275;28;20037;-76
2023/10/24 02:24:36;;;;;;;7.40;4.10;;;;;;;10.99;100.00;97906.19;5000461;28;20260;-77
2023/10/24 02:27:01;;;;;;;6.65;4.28;;;;;;;10.88;100.00;97890.72;4990047;28;20079;-77
2023/10/24 02:29:27;;;;;;;6.75;4.63;;;;;;;11.02;100.00;97915.72;4984547;28;20026;-77
2023/10/24 02:31:52;;;;;;;8.90;4.35;;;;;;;10.92;100.00;97910.84;4999317;28;20030;-77
2023/10/24 02:34:18;;;;;;;8.85;4.10;;;;;;;11.00;100.00;97913.25;5000390;28;20030;-77
2023/10/24 02:36:43;;;;;;;6.22;3.90;;;;;;;10.86;100.00;97899.06;5004035;28;20038;-77
2023/10/24 02:39:09;;;;;;;7.43;4.00;;;;;;;11.00;100.00;97912.41;5003281;28;20033;-77
2023/10/24 02:41:35;;;;;;;7.80;4.03;;;;;;;10.95;100.00;97899.56;5005040;28;20034;-78
2023/10/24 02:44:00;;;;;;;5.97;3.45;;;;;;;11.00;100.00;97901.59;4988931;28;20019;-77
2023/10/24 02:46:25;;;;;;;6.35;3.80;;;;;;;11.09;100.00;97894.81;4990354;28;20114;-76
2023/10/24 02:48:51;;;;;;;6.90;3.92;;;;;;;11.14;100.00;97903.91;5002076;28;20325;-77
2023/10/24 02:51:16;;;;;;;6.05;3.97;;;;;;;11.03;100.00;97893.88;4985820;28;20041;-76
2023/10/24 02:53:41;;;;;;;7.13;3.95;;;;;;;11.12;100.00;97921.44;4990868;28;20274;-77
2023/10/24 02:56:07;;;;;;;6.53;3.85;;;;;;;11.15;100.00;97900.13;5002079;28;20030;-77
2023/10/24 02:58:32;;;;;;;8.55;4.03;;;;;;;11.07;100.00;97911.28;4998222;28;20030;-77
2023/10/24 03:01:05;;;;;;;8.80;4.80;;;;;;;10.86;100.00;97877.41;5002942;28;20029;-77
2023/10/24 03:03:32;;;;;;;8.85;5.03;;;;;;;10.89;100.00;97892.38;5004118;28;20030;-77
2023/10/24 03:05:57;;;;;;;9.27;5.45;;;;;;;10.87;100.00;97880.94;5004661;28;20029;-77
2023/10/24 03:08:22;;;;;;;8.10;4.90;;;;;;;10.93;100.00;97904.41;5002112;28;20126;-78
2023/10/24 03:10:47;;;;;;;10.70;4.95;;;;;;;10.94;100.00;97904.16;4984195;28;20065;-78
2023/10/24 03:13:13;;;;;;;7.40;4.70;;;;;;;10.87;100.00;97908.84;4996416;28;20362;-77
2023/10/24 03:15:39;;;;;;;8.13;4.32;;;;;;;10.81;100.00;97914.31;4998891;28;20038;-77
2023/10/24 03:18:05;;;;;;;6.85;4.88;;;;;;;10.73;100.00;97908.16;4984859;28;20023;-77
2023/10/24 03:20:30;;;;;;;7.78;4.53;;;;;;;10.73;100.00;97897.34;4984480;28;20046;-76
2023/10/24 03:22:56;;;;;;;8.45;4.30;;;;;;;10.82;100.00;97924.09;5001656;28;20041;-77
2023/10/24 03:25:25;;;;;;;7.82;4.20;;;;;;;10.78;100.00;97920.19;5003144;28;20022;-77
2023/10/24 03:27:53;;;;;;;6.85;4.03;;;;;;;10.84;100.00;97919.28;5004597;28;20323;-76
2023/10/24 03:30:18;;;;;;;7.28;3.97;;;;;;;10.77;100.00;97924.78;5003263;28;20030;-76
2023/10/24 03:32:43;;;;;;;5.25;3.88;;;;;;;10.85;100.00;97935.31;5003426;28;20077;-77
2023/10/24 03:35:09;;;;;;;6.90;3.38;;;;;;;10.83;100.00;97912.22;5004251;28;20141;-76
2023/10/24 03:37:34;;;;;;;6.75;3.65;;;;;;;10.81;100.00;97903.50;5004284;28;20026;-76
2023/10/24 03:39:59;;;;;;;4.72;3.50;;;;;;;10.99;100.00;97917.00;5004276;28;20026;-76
2023/10/24 03:42:25;;;;;;;4.93;3.28;;;;;;;10.97;100.00;97908.28;4999162;28;20223;-77
2023/10/24 03:44:51;;;;;;;8.05;3.83;;;;;;;10.94;100.00;97903.34;5004442;28;20093;-77
2023/10/24 03:47:16;;;;;;;4.55;3.50;;;;;;;10.98;100.00;97909.97;5003146;28;20215;-76
2023/10/24 03:49:42;;;;;;;7.68;3.53;;;;;;;11.00;100.00;97915.13;5000427;28;20045;-77
2023/10/24 03:52:07;;;;;;;7.80;4.00;;;;;;;11.00;100.00;97913.25;4994957;28;20035;-77
2023/10/24 03:54:33;;;;;;;11.57;4.28;;;;;;;10.87;100.00;97898.03;4985465;28;20030;-80
2023/10/24 03:57:00;;;;;;;10.15;4.82;;;;;;;10.84;100.00;97893.03;4988385;28;20027;-77
2023/10/24 03:59:25;;;;;;;8.00;4.35;;;;;;;10.92;100.00;97916.25;4993739;28;20049;-77
2023/10/24 04:01:50;;;;;;;5.88;4.45;;;;;;;10.80;100.00;97877.50;4998466;28;20050;-77
2023/10/24 04:04:16;;;;;;;12.25;4.97;;;;;;;10.75;100.00;97878.19;4995468;28;20034;-77
2023/10/24 04:06:42;;;;;;;10.13;5.50;;;;;;;10.78;100.00;97875.03;4993263;28;20026;-74
2023/10/24 04:09:07;;;;;;;6.80;4.88;;;;;;;10.78;100.00;97866.09;4998389;28;20026;-73
2023/10/24 04:11:33;;;;;;;8.32;5.25;;;;;;;10.79;100.00;97859.59;4984141;28;20026;-74
2023/10/24 04:13:58;;;;;;;12.00;5.85;;;;;;;10.78;100.00;97856.09;4986190;28;20033;-75
2023/10/24 04:16:24;;;;;;;8.40;5.72;;;;;;;10.70;100.00;97816.63;4992746;28;20028;-73
2023/10/24 04:18:49;;;;;;;9.38;5.82;;;;;;;10.74;100.00;97834.09;4997158;28;20398;-74
2023/10/24 04:21:15;;;;;;;6.50;5.00;;;;;;;10.83;100.00;97845.41;4996871;28;20390;-74
2023/10/24 04:23:41;;;;;;;9.88;5.05;;;;;;;10.74;100.00;97846.75;4990182;28;20042;-73
2023/10/24 04:26:06;;;;;;;10.65;4.88;;;;;;;10.89;100.00;97851.78;4997904;28;20223;-73
2023/10/24 04:28:31;;;;;;;7.70;4.70;;;;;;;10.89;100.00;97843.66;4986450;28;20064;-75
2023/10/24 04:30:56;;;;;;;8.05;3.88;;;;;;;10.90;100.00;97826.38;4997750;28;20014;-74
2023/10/24 04:33:22;;;;;;;7.80;4.32;;;;;;;11.02;100.00;97848.88;5003009;28;20101;-73
2023/10/24 04:35:49;;;;;;;7.40;4.18;;;;;;;11.01;100.00;97843.72;4995158;28;20040;-73
2023/10/24 04:38:14;;;;;;;8.13;3.88;;;;;;;10.92;100.00;97838.59;5002985;28;20026;-73
2023/10/24 04:40:41;;;;;;;7.95;3.92;;;;;;;10.93;100.00;97850.28;4992350;28;20048;-73
2023/10/24 04:43:07;;;;;;;8.52;3.90;;;;;;;10.90;100.00;97856.97;4991212;28;20030;-74
2023/10/24 04:45:32;;;;;;;9.25;3.90;;;;;;;10.93;100.00;97858.41;5004435;28;20037;-77
2023/10/24 04:47:59;;;;;;;9.77;4.30;;;;;;;10.88;100.00;97852.84;5002018;28;20026;-76
2023/10/24 04:50:24;;;;;;;5.97;3.58;;;;;;;10.93;100.00;97861.09;5002232;28;20028;-77
2023/10/24 04:52:50;;;;;;;7.88;3.83;;;;;;;10.96;100.00;97860.63;5001102;28;20062;-75
2023/10/24 04:55:16;;;;;;;7.80;4.40;;;;;;;10.97;100.00;97878.53;5001623;28;20030;-75
2023/10/24 04:57:42;;;;;;;8.77;4.10;;;;;;;10.92;100.00;97867.56;4989793;28;20090;-74
2023/10/24 05:00:11;;;;;;;5.88;3.83;;;;;;;10.91;100.00;97872.16;4998780;28;20023;-75
2023/10/24 05:02:37;;;;;;;5.90;3.40;;;;;;;10.89;100.00;97860.72;5001040;28;20026;-75
2023/10/24 05:05:02;;;;;;;7.00;3.58;;;;;;;10.75;100.00;97851.94;4998228;28;20032;-76
2023/10/24 05:07:28;;;;;;;6.18;3.78;;;;;;;10.73;100.00;97850.53;5000845;28;20227;-75
2023/10/24 05:09:53;;;;;;;6.38;3.70;;;;;;;10.74;100.00;97855.72;5000954;28;20093;-78
2023/10/24 05:12:18;;;;;;;8.40;4.50;;;;;;;10.72;100.00;97859.72;4985171;28;20026;-77
2023/10/24 05:14:44;;;;;;;9.43;4.82;;;;;;;10.71;100.00;97850.75;4986168;28;20033;-77
2023/10/24 05:17:09;;;;;;;10.18;4.68;;;;;;;10.76;100.00;97850.06;4994964;28;20037;-75
2023/10/24 05:19:35;;;;;;;8.15;4.57;;;;;;;10.73;100.00;97843.22;4991773;28;20323;-75
2023/10/24 05:22:00;;;;;;;9.60;5.50;;;;;;;10.63;100.00;97824.00;4995140;28;20328;-76
2023/10/24 05:24:25;;;;;;;7.85;5.25;;;;;;;10.62;100.00;97819.66;5006482;28;20038;-74
2023/10/24 05:26:51;;;;;;;10.07;4.95;;;;;;;10.67;100.00;97825.22;4997133;28;20129;-75
2023/10/24 05:29:16;;;;;;;9.90;5.57;;;;;;;10.65;100.00;97812.97;5004491;28;20026;-74
2023/10/24 05:31:41;;;;;;;8.27;4.88;;;;;;;10.65;100.00;97812.97;4992211;28;20080;-74
2023/10/24 05:34:06;;;;;;;9.90;5.50;;;;;;;10.68;100.00;97798.97;5001840;28;20030;-74
2023/10/24 05:36:32;;;;;;;8.93;5.25;;;;;;;10.71;100.00;97817.47;5004821;28;20065;-74
2023/10/24 05:38:57;;;;;;;7.50;5.25;;;;;;;10.75;100.00;97808.66;5003418;28;20022;-74
2023/10/24 05:41:22;;;;;;;9.77;5.28;;;;;;;10.78;100.00;97826.31;4990266;28;20022;-74
2023/10/24 05:43:47;;;;;;;9.93;5.28;;;;;;;10.67;100.00;97810.88;5002097;28;20041;-74
2023/10/24 05:46:13;;;;;;;9.10;5.65;;;;;;;10.59;100.00;97803.06;5003903;28;20045;-74
2023/10/24 05:48:39;;;;;;;10.52;5.70;;;;;;;10.64;100.00;97816.75;4995693;28;20026;-75
2023/10/24 05:51:07;;;;;;;8.38;5.25;;;;;;;10.58;100.00;97813.03;5000631;28;20045;-74
2023/10/24 05:53:33;;;;;;;9.13;5.95;;;;;;;10.61;100.00;97820.72;5004529;28;20030;-73
2023/10/24 05:55:58;;;;;;;14.25;5.55;;;;;;;10.61;100.00;97828.00;4998572;28;20022;-73
2023/10/24 05:58:23;;;;;;;11.63;5.90;;;;;;;10.57;100.00;97808.69;5005219;28;20061;-74
2023/10/24 06:00:49;;;;;;;13.15;5.65;;;;;;;10.59;100.00;97795.78;5002935;28;20023;-73
2023/10/24 06:03:14;;;;;;;11.13;5.13;;;;;;;10.69;100.00;97815.00;4990250;28;20022;-74
2023/10/24 06:08:06;;;;;;;8.25;5.18;;;;;;;10.67;100.00;97795.47;5084275;22;20045;-72
2023/10/24 06:10:31;;;;;;;10.43;4.65;;;;;;;10.72;100.00;97805.59;5049610;28;20025;-72
2023/10/24 06:12:57;;;;;;;9.90;4.78;;;;;;;10.71;100.00;97807.47;5044382;28;20031;-73
2023/10/24 06:15:22;;;;;;;6.85;4.43;;;;;;;10.78;100.00;97806.56;5058989;28;20025;-75
2023/10/24 06:17:47;;;;;;;9.13;4.50;;;;;;;10.78;100.00;97807.38;5015644;28;20057;-76
2023/10/24 06:20:13;;;;;;;7.32;4.57;;;;;;;10.71;100.00;97801.22;5020825;28;20048;-76
2023/10/24 06:22:38;;;;;;;6.82;4.22;;;;;;;10.82;100.00;97813.16;5027554;28;20029;-75
2023/10/24 06:25:04;;;;;;;9.70;4.35;;;;;;;10.85;100.00;97812.72;5036476;28;20044;-75
2023/10/24 06:27:29;;;;;;;9.32;4.90;;;;;;;10.91;100.00;97826.13;5027327;28;20116;-73
2023/10/24 06:29:54;;;;;;;10.75;4.43;;;;;;;10.90;100.00;97831.81;5044056;28;20032;-72
2023/10/24 06:32:19;;;;;;;7.78;4.15;;;;;;;10.89;100.00;97824.72;5044238;28;20025;-73
2023/10/24 06:34:45;;;;;;;8.52;4.60;;;;;;;11.00;100.00;97837.47;5044713;28;20104;-70
2023/10/24 06:37:10;;;;;;;7.15;4.78;;;;;;;10.93;100.00;97840.28;5045538;28;20029;-78
2023/10/24 06:39:36;;;;;;;6.00;4.22;;;;;;;10.94;100.00;97843.81;5043666;28;20025;-78
2023/10/24 06:42:01;;;;;;;7.30;4.55;;;;;;;11.05;100.00;97845.72;5047399;28;20029;-71
2023/10/24 06:44:28;;;;;;;14.45;4.80;;;;;;;11.08;100.00;97847.13;5043911;28;20031;-71
2023/10/24 06:46:53;;;;;;;9.23;4.40;;;;;;;11.06;100.00;97839.25;5038581;28;20092;-71
2023/10/24 06:49:18;;;;;;;6.90;3.88;;;;;;;11.08;100.00;97839.88;5037535;28;20030;-78
2023/10/24 06:51:43;;;;;;;9.18;4.07;;;;;;;11.03;100.00;97834.31;5016464;28;20072;-79
2023/10/24 06:54:09;;;;;;;10.00;3.95;;;;;;;11.06;100.00;97835.75;5038349;28;20025;-79
2023/10/24 06:56:35;;;;;;;6.75;3.97;;;;;;;11.09;100.00;97841.50;5035346;28;20026;-77
2023/10/24 06:59:00;;;;;;;9.88;4.20;;;;;;;11.15;100.00;97845.16;5014212;28;20044;-74
2023/10/24 07:01:26;;;;;;;8.25;3.88;;;;;;;11.13;100.00;97842.72;5039129;28;20063;-74
2023/10/24 07:03:51;;;;;;;6.25;3.65;;;;;;;11.16;100.00;97839.53;5044473;28;20171;-73
2023/10/24 07:06:35;;;;;;;8.15;4.22;;;;;;;11.17;100.00;97833.06;5044409;28;20045;-78
2023/10/24 07:09:00;;;;;;;8.07;3.42;;;;;;;11.14;100.00;97830.81;5030963;28;20030;-80
2023/10/24 07:11:25;;;;;;;10.77;4.03;;;;;;;11.13;100.00;97831.03;5031496;28;20155;-79
2023/10/24 07:13:51;;;;;;;9.82;3.50;;;;;;;11.23;100.00;97860.25;5049756;28;20036;-78
2023/10/24 07:16:16;;;;;;;7.72;4.05;;;;;;;11.19;100.00;97847.19;5017465;28;20058;-76
2023/10/24 07:18:43;;;;;;;5.90;4.00;;;;;;;11.28;100.00;97842.25;5046328;28;20084;-76
2023/10/24 07:21:08;;;;;;;5.80;3.72;;;;;;;11.35;100.00;97840.28;5024251;28;20021;-75
2023/10/24 07:23:34;;;;;;;6.85;4.22;;;;;;;11.41;100.00;97843.94;5033753;28;20139;-77
2023/10/24 07:25:59;;;;;;;7.72;5.03;;;;;;;11.48;100.00;97852.81;5040806;28;20092;-74
2023/10/24 07:28:24;;;;;;;8.15;5.32;;;;;;;11.56;100.00;97857.88;5036117;28;20049;-75
2023/10/24 07:30:51;;;;;;;11.60;5.13;;;;;;;11.55;100.00;97839.97;5043274;28;20087;-75
2023/10/24 07:33:21;;;;;;;14.27;4.95;;;;;;;11.48;100.00;97836.56;5019770;28;20275;-74
2023/10/24 07:35:48;;;;;;;6.22;4.53;;;;;;;11.50;100.00;97850.69;5042154;28;20230;-75
2023/10/24 07:38:13;;;;;;;9.82;5.28;;;;;;;11.41;100.00;97849.38;5027540;28;20045;-76
2023/10/24 07:40:39;;;;;;;10.55;4.95;;;;;;;11.41;100.00;97852.06;5026624;28;20028;-76
2023/10/24 07:43:05;;;;;;;9.60;5.60;;;;;;;11.34;100.00;97854.03;5040730;28;20025;-76
2023/10/24 07:45:30;;;;;;;10.02;5.45;;;;;;;11.31;100.00;97855.34;5027584;28;20028;-76
2023/10/24 07:47:56;;;;;;;9.63;5.10;;;;;;;11.37;100.00;97853.56;5040392;28;20032;-72
2023/10/24 07:50:21;;;;;;;9.70;5.57;;;;;;;11.35;100.00;97825.94;5025945;28;20040;-72
2023/10/24 07:52:46;;;;;;;13.68;5.80;;;;;;;11.34;100.00;97832.38;5036887;28;20025;-79
2023/10/24 07:55:12;;;;;;;14.60;6.47;;;;;;;11.41;100.00;97839.34;5017353;28;20030;-78
2023/10/24 07:57:37;;;;;;;10.57;5.75;;;;;;;11.40;100.00;97820.66;5027376;28;20029;-79
2023/10/24 08:00:03;;;;;;;8.32;4.68;;;;;;;11.55;100.00;97831.84;5017857;28;20025;-74
2023/10/24 08:02:28;;;;;;;9.70;4.40;;;;;;;11.55;100.00;97812.91;5022447;28;20025;-78
2023/10/24 08:04:54;;;;;;;6.90;4.75;;;;;;;11.69;100.00;97829.75;5030710;28;20025;-78
2023/10/24 08:07:19;;;;;;;10.60;5.40;;;;;;;11.73;100.00;97821.97;5044158;28;20030;-77
2023/10/24 08:09:44;;;;;;;9.57;5.10;;;;;;;11.76;100.00;97827.75;5017580;28;20091;-78
2023/10/24 08:12:11;;;;;;;9.18;5.05;;;;;;;11.79;100.00;97831.88;5046494;28;20225;-79
2023/10/24 08:14:37;;;;;;;13.25;5.65;;;;;;;11.96;100.00;97838.25;5016527;28;20017;-79
2023/10/24 08:17:05;;;;;;;9.32;4.50;;;;;;;11.83;100.00;97814.88;5032378;28;20021;-80
2023/10/24 08:19:30;;;;;;;7.07;4.30;;;;;;;11.97;100.00;97833.66;5032191;28;20009;-79
2023/10/24 08:21:56;;;;;;;7.15;4.38;;;;;;;11.91;100.00;97827.31;5025737;28;20032;-73
2023/10/24 08:24:21;;;;;;;11.20;4.28;;;;;;;11.99;100.00;97835.06;5043104;28;20028;-74
2023/10/24 08:26:47;;;;;;;9.45;4.28;;;;;;;12.07;100.00;97840.13;5043942;28;20032;-73
2023/10/24 08:29:12;;;;;;;9.85;4.47;;;;;;;12.07;100.00;97837.41;5026121;28;20044;-74
2023/10/24 08:31:37;;;;;;;9.32;4.60;;;;;;;12.14;100.00;97839.22;5040699;28;20077;-74
2023/10/24 08:34:03;;;;;;;7.38;3.72;;;;;;;12.19;100.00;97829.28;5006399;28;20021;-74
2023/10/24 08:36:28;;;;;;;7.32;4.20;;;;;;;12.16;100.00;97824.34;5024192;28;20044;-74
2023/10/24 08:38:54;;;;;;;5.70;4.00;;;;;;;12.21;100.00;97837.19;5041740;28;20071;-74
2023/10/24 08:41:22;;;;;;;9.85;4.40;;;;;;;12.18;100.00;97840.38;5025449;28;20025;-74
2023/10/24 08:43:48;;;;;;;11.55;4.20;;;;;;;12.13;100.00;97853.81;5044330;28;20033;-74
2023/10/24 08:46:14;;;;;;;12.93;5.90;;;;;;;12.02;100.00;97842.72;5034807;28;20138;-73
2023/10/24 08:48:39;;;;;;;10.65;6.07;;;;;;;11.97;100.00;97847.22;5039135;28;20033;-74
2023/10/24 08:51:05;;;;;;;11.90;7.05;;;;;;;11.97;100.00;97848.06;5017614;28;20036;-74
2023/10/24 08:53:30;;;;;;;9.27;6.78;;;;;;;11.99;100.00;97850.53;5037121;28;20021;-74
2023/10/24 08:55:57;;;;;;;11.07;6.82;;;;;;;11.97;100.00;97847.22;5042296;28;20025;-73
2023/10/24 08:58:23;;;;;;;14.93;7.25;;;;;;;11.97;100.00;97858.91;5043358;28;20029;-74
2023/10/24 09:00:50;;;;;;;12.30;6.75;;;;;;;11.94;100.00;97864.78;5039873;28;20017;-74
2023/10/24 09:03:16;;;;;;;15.80;7.43;;;;;;;11.89;100.00;97870.06;5027599;28;20032;-74
2023/10/24 09:05:44;;;;;;;12.27;7.75;;;;;;;11.80;100.00;97863.34;5043001;28;20032;-74
2023/10/24 09:08:10;;;;;;;13.18;7.88;;;;;;;11.71;100.00;97859.31;5029197;28;20060;-74
2023/10/24 09:10:35;;;;;;;15.02;8.82;;;;;;;11.72;100.00;97855.56;5044407;28;20020;-74
2023/10/24 09:13:04;;;;;;;15.98;9.45;;;;;;;11.77;100.00;97870.03;5031281;28;20017;-74
2023/10/24 09:15:33;;;;;;;13.90;9.23;;;;;;;11.68;100.00;97863.28;5042806;28;20020;-74
2023/10/24 09:18:01;;;;;;;18.98;10.77;;;;;;;11.59;100.00;97876.38;5021673;28;20034;-73
2023/10/24 09:20:29;;;;;;;22.38;10.18;;;;;;;11.58;100.00;97882.84;5041394;28;20206;-74
2023/10/24 09:22:55;;;;;;;21.52;10.35;;;;;;;11.47;100.00;97871.97;5042489;28;20079;-74
2023/10/24 09:25:21;;;;;;;18.63;9.80;;;;;;;11.60;100.00;97882.59;5020254;28;20021;-74
2023/10/24 09:27:46;;;;;;;17.83;10.45;;;;;;;11.59;100.00;97887.22;5042566;28;20527;-74
2023/10/24 09:30:12;;;;;;;14.65;9.65;;;;;;;11.58;100.00;97893.69;5042267;28;20026;-74
2023/10/24 09:32:41;;;;;;;15.43;8.40;;;;;;;11.65;100.00;97888.16;5041332;28;20021;-74
2023/10/24 09:35:07;;;;;;;14.82;7.82;;;;;;;11.67;100.00;97885.22;5023689;28;20251;-74
2023/10/24 09:37:33;;;;;;;16.80;8.70;;;;;;;11.50;100.00;97877.78;5043168;28;20032;-74
2023/10/24 09:40:00;;;;;;;13.50;8.65;;;;;;;11.54;100.00;97887.06;5018527;28;20061;-73
2023/10/24 09:42:30;;;;;;;13.15;8.98;;;;;;;11.64;100.00;97883.81;5017664;28;20030;-73
2023/10/24 09:44:58;;;;;;;15.18;9.15;;;;;;;11.70;100.00;97880.16;5025662;28;20013;-73
2023/10/24 09:47:26;;;;;;;16.40;8.93;;;;;;;11.59;100.00;97868.25;5021141;28;20088;-73
2023/10/24 09:49:53;;;;;;;14.50;8.95;;;;;;;11.67;100.00;97875.22;5048367;28;20032;-73
2023/10/24 09:52:20;;;;;;;15.45;9.23;;;;;;;11.85;100.00;97880.53;5028969;28;20032;-73
2023/10/24 09:54:50;;;;;;;16.70;9.70;;;;;;;12.04;100.00;97884.00;5050596;28;20025;-73
2023/10/24 09:57:22;;;;;;;20.73;8.50;;;;;;;12.03;100.00;97874.22;5044797;28;20029;-73
2023/10/24 09:59:52;;;;;;;10.85;7.18;;;;;;;12.13;100.00;97889.91;5023372;28;20036;-73
2023/10/24 10:02:19;;;;;;;15.93;7.78;;;;;;;12.16;100.00;97883.19;5048558;28;20056;-73
2023/10/24 10:04:47;;;;;;;17.77;9.52;;;;;;;12.14;100.00;97871.75;5037157;28;20113;-73
2023/10/24 10:07:15;;;;;;;20.35;9.38;;;;;;;12.25;100.00;97881.75;5029115;28;20017;-73
2023/10/24 10:10:01;;;;;;;20.20;8.35;;;;;;;12.18;100.00;97886.47;5060003;28;20044;-72
2023/10/24 10:12:28;;;;;;;18.92;10.27;;;;;;;12.27;100.00;97872.31;5046111;28;20104;-74
2023/10/24 10:15:22;;;;;;;12.60;7.43;;;;;;;12.23;100.00;97862.16;5045896;28;20074;-74
2023/10/24 10:18:18;;;;;;;14.48;7.50;;;;;;;12.28;100.00;97865.00;5018607;28;20037;-74
2023/10/24 10:20:55;;;;;;;15.55;7.97;;;;;;;12.39;100.00;97866.91;5020749;28;20025;-74
2023/10/24 10:23:57;;;;;;;12.32;7.32;;;;;;;12.36;100.00;97866.53;5030711;28;20022;-73
2023/10/24 10:26:45;;;;;;;13.10;7.07;;;;;;;12.31;100.00;97856.38;5017962;28;20030;-73
2023/10/24 10:29:37;;;;;;;20.92;9.15;;;;;;;12.36;100.00;97859.22;5031291;28;20025;-74
2023/10/24 10:32:33;;;;;;;13.75;7.20;;;;;;;12.45;100.00;97841.50;5037548;28;20096;-73
2023/10/24 10:34:59;;;;;;;10.52;6.75;;;;;;;12.30;100.00;97830.34;5044001;28;20053;-73
2023/10/24 10:37:30;;;;;;;9.80;7.40;;;;;;;12.38;100.00;97837.28;5029302;28;20051;-74
2023/10/24 10:40:14;;;;;;;12.20;6.75;;;;;;;12.47;100.00;97836.69;5027660;28;20024;-73
2023/10/24 10:42:49;;;;;;;11.65;7.40;;;;;;;12.49;100.00;97829.09;5045171;28;20363;-74
2023/10/24 10:45:29;;;;;;;14.55;7.55;;;;;;;12.53;100.00;97834.06;5020732;28;20258;-74
2023/10/24 10:48:04;;;;;;;13.07;6.63;;;;;;;12.61;100.00;97820.94;5043227;28;20029;-74
2023/10/24 10:50:34;;;;;;;10.23;7.07;;;;;;;12.52;100.00;97826.97;5040403;28;20029;-74
2023/10/24 10:53:31;;;;;;;11.30;6.85;;;;;;;12.63;100.00;97823.44;5040725;28;20337;-74
2023/10/24 10:56:11;;;;;;;11.85;6.53;;;;;;;12.52;100.00;97830.50;5040754;28;20061;-73
2023/10/24 10:58:42;;;;;;;11.60;6.03;;;;;;;12.59;100.00;97824.97;5039319;28;20025;-74
2023/10/24 11:01:46;;;;;;;10.25;6.68;;;;;;;12.61;100.00;97820.13;5018533;28;20025;-74
2023/10/24 11:04:14;;;;;;;11.27;7.05;;;;;;;12.63;100.00;97812.59;5029420;28;20092;-73
2023/10/24 11:07:00;;;;;;;14.33;6.60;;;;;;;12.54;100.00;97814.00;5033647;28;20025;-74
2023/10/24 11:09:34;;;;;;;12.20;6.28;;;;;;;12.63;100.00;97809.88;5036266;28;20104;-73
2023/10/24 11:12:21;;;;;;;11.38;6.68;;;;;;;12.66;100.00;97812.91;5043342;28;20021;-74
2023/10/24 11:15:05;;;;;;;14.35;7.82;;;;;;;12.62;100.00;97811.72;5024686;28;20064;-74
2023/10/24 11:17:31;;;;;;;15.27;8.63;;;;;;;12.57;100.00;97816.25;5038180;28;20032;-74
2023/10/24 11:20:01;;;;;;;16.98;8.48;;;;;;;12.63;100.00;97818.00;5033734;28;20022;-77
2023/10/24 11:22:26;;;;;;;7.82;6.50;;;;;;;12.65;100.00;97808.56;5022034;28;20021;-75
2023/10/24 11:24:52;;;;;;;17.00;8.30;;;;;;;12.67;100.00;97797.44;5038080;28;20026;-75